createdAt,value
2018-03-07T00:01:08.925Z,0.81
2018-03-07T00:03:34.778Z,0.82
2018-03-07T00:06:00.678Z,0.83
2018-03-07T00:08:26.524Z,0.83
2018-03-07T00:10:52.365Z,0.84
2018-03-07T00:13:18.281Z,0.81
2018-03-07T00:15:44.133Z,0.80
2018-03-07T00:18:09.994Z,0.82
2018-03-07T00:20:35.968Z,0.85
2018-03-07T00:23:01.809Z,0.84
2018-03-07T00:25:27.714Z,0.83
2018-03-07T00:27:53.609Z,0.84
2018-03-07T00:30:19.461Z,0.83
2018-03-07T00:32:45.305Z,0.82
2018-03-07T00:35:11.202Z,0.82
2018-03-07T00:37:37.045Z,0.83
2018-03-07T00:40:02.902Z,0.81
2018-03-07T00:42:28.784Z,0.81
2018-03-07T00:44:54.637Z,0.80
2018-03-07T00:47:20.582Z,0.80
2018-03-07T00:49:46.473Z,0.80
2018-03-07T00:52:12.334Z,0.81
2018-03-07T00:54:38.201Z,0.81
2018-03-07T00:57:04.102Z,0.82
2018-03-07T00:59:29.952Z,0.82
2018-03-07T01:01:55.867Z,0.82
2018-03-07T01:04:21.778Z,0.83
2018-03-07T01:06:47.625Z,0.82
2018-03-07T01:09:13.469Z,0.84
2018-03-07T01:11:39.364Z,0.81
2018-03-07T01:14:05.215Z,0.82
2018-03-07T01:16:31.067Z,0.81
2018-03-07T01:18:56.965Z,0.80
2018-03-07T01:21:22.814Z,0.79
2018-03-07T01:23:48.665Z,0.79
2018-03-07T01:26:14.638Z,0.78
2018-03-07T01:28:40.489Z,0.77
2018-03-07T01:31:06.338Z,0.77
2018-03-07T01:33:32.313Z,0.76
2018-03-07T01:35:58.158Z,0.79
2018-03-07T01:38:24.001Z,0.79
2018-03-07T01:40:49.912Z,0.77
2018-03-07T01:43:15.765Z,0.78
2018-03-07T01:45:41.630Z,0.77
2018-03-07T01:48:07.522Z,0.77
2018-03-07T01:50:33.395Z,0.76
2018-03-07T01:52:59.253Z,0.78
2018-03-07T01:55:25.153Z,0.80
2018-03-07T01:57:51.002Z,0.77
2018-03-07T02:00:16.860Z,0.78
2018-03-07T02:02:42.876Z,0.78
2018-03-07T02:05:08.750Z,0.79
2018-03-07T02:07:34.593Z,0.80
2018-03-07T02:10:00.481Z,0.81
2018-03-07T02:12:26.344Z,0.81
2018-03-07T02:14:52.190Z,0.82
2018-03-07T02:17:18.081Z,0.81
2018-03-07T02:19:43.938Z,0.79
2018-03-07T02:22:09.850Z,0.80
2018-03-07T02:24:35.729Z,0.80
2018-03-07T02:27:01.582Z,0.79
2018-03-07T02:29:27.445Z,0.79
2018-03-07T02:31:53.329Z,0.77
2018-03-07T02:34:19.191Z,0.78
2018-03-07T02:36:45.037Z,0.78
2018-03-07T02:39:10.916Z,0.81
2018-03-07T02:41:36.774Z,0.80
2018-03-07T02:44:02.655Z,0.79
2018-03-07T02:46:28.554Z,0.79
2018-03-07T02:48:54.401Z,0.78
2018-03-07T02:51:20.274Z,0.80
2018-03-07T02:53:46.172Z,0.83
2018-03-07T02:56:12.030Z,0.81
2018-03-07T02:58:37.886Z,0.80
2018-03-07T03:01:03.770Z,0.79
2018-03-07T03:03:29.667Z,0.79
2018-03-07T03:05:55.518Z,0.78
2018-03-07T03:08:21.398Z,0.79
2018-03-07T03:10:47.309Z,0.78
2018-03-07T03:13:13.145Z,0.79
2018-03-07T03:15:39.043Z,0.85
2018-03-07T03:18:04.894Z,0.92
2018-03-07T03:20:30.738Z,0.90
2018-03-07T03:22:56.609Z,0.91
2018-03-07T03:25:22.466Z,0.85
2018-03-07T03:27:48.308Z,0.82
2018-03-07T03:30:14.195Z,0.91
2018-03-07T03:32:40.109Z,0.92
2018-03-07T03:35:05.949Z,0.87
2018-03-07T03:37:31.850Z,0.87
2018-03-07T03:39:57.695Z,0.83
2018-03-07T03:42:23.575Z,0.84
2018-03-07T03:44:49.460Z,0.83
2018-03-07T03:47:15.312Z,0.83
2018-03-07T03:49:41.144Z,0.83
2018-03-07T03:52:07.044Z,0.86
2018-03-07T03:54:32.998Z,0.83
2018-03-07T03:56:58.836Z,0.84
2018-03-07T03:59:24.753Z,0.91
2018-03-07T04:01:50.588Z,0.89
2018-03-07T04:04:16.425Z,0.87
2018-03-07T04:06:42.392Z,0.83
2018-03-07T04:09:08.233Z,0.81
2018-03-07T04:11:34.127Z,0.90
2018-03-07T04:14:00.016Z,0.93
2018-03-07T04:16:25.865Z,0.86
2018-03-07T04:18:51.704Z,0.89
2018-03-07T04:21:17.583Z,0.87
2018-03-07T04:23:43.436Z,0.86
2018-03-07T04:26:09.301Z,0.84
2018-03-07T04:28:35.179Z,0.86
2018-03-07T04:31:01.030Z,0.88
2018-03-07T04:33:26.902Z,0.86
2018-03-07T04:35:52.784Z,0.86
2018-03-07T04:38:18.629Z,0.87
2018-03-07T04:40:44.516Z,0.81
2018-03-07T04:43:10.378Z,0.83
2018-03-07T04:45:36.231Z,0.81
2018-03-07T04:48:02.091Z,0.83
2018-03-07T04:50:28.024Z,0.86
2018-03-07T04:52:53.872Z,0.84
2018-03-07T04:55:19.710Z,0.85
2018-03-07T04:57:45.589Z,0.92
2018-03-07T05:00:11.470Z,0.93
2018-03-07T05:02:37.357Z,0.88
2018-03-07T05:05:03.255Z,0.82
2018-03-07T05:07:29.105Z,0.79
2018-03-07T05:09:54.953Z,0.78
2018-03-07T05:12:20.902Z,0.77
2018-03-07T05:14:46.748Z,0.82
2018-03-07T05:17:12.587Z,0.80
2018-03-07T05:19:38.479Z,0.85
2018-03-07T05:22:04.319Z,0.83
2018-03-07T05:24:30.156Z,0.85
2018-03-07T05:26:56.046Z,0.87
2018-03-07T05:29:21.905Z,0.97
2018-03-07T05:31:47.752Z,0.97
2018-03-07T05:34:13.636Z,0.94
2018-03-07T05:36:39.522Z,0.92
2018-03-07T05:39:05.401Z,0.91
2018-03-07T05:41:31.280Z,0.94
2018-03-07T05:43:57.208Z,0.88
2018-03-07T05:46:23.062Z,0.87
2018-03-07T05:48:48.949Z,0.86
2018-03-07T05:51:14.857Z,0.92
2018-03-07T05:53:40.701Z,0.92
2018-03-07T05:56:06.589Z,0.87
2018-03-07T05:58:32.432Z,0.86
2018-03-07T06:00:58.272Z,0.93
2018-03-07T06:03:24.246Z,0.91
2018-03-07T06:05:50.089Z,0.93
2018-03-07T06:08:15.929Z,0.99
2018-03-07T06:10:41.947Z,0.98
2018-03-07T06:13:07.864Z,1.05
2018-03-07T06:15:33.714Z,1.07
2018-03-07T06:17:59.600Z,1.09
2018-03-07T06:20:25.463Z,1.13
2018-03-07T06:22:51.330Z,1.12
2018-03-07T06:25:17.287Z,1.12
2018-03-07T06:27:43.145Z,1.11
2018-03-07T06:30:09.005Z,1.12
2018-03-07T06:32:34.892Z,1.13
2018-03-07T06:35:00.761Z,1.13
2018-03-07T06:37:26.603Z,1.19
2018-03-07T06:39:52.493Z,1.28
2018-03-07T06:42:20.265Z,1.15
2018-03-07T06:44:46.120Z,1.26
2018-03-07T06:47:12.024Z,1.22
2018-03-07T06:49:37.877Z,1.23
2018-03-07T06:52:03.741Z,1.23
2018-03-07T06:54:29.624Z,1.25
2018-03-07T06:56:55.476Z,1.27
2018-03-07T06:59:21.333Z,1.31
2018-03-07T07:01:47.259Z,1.33
2018-03-07T07:04:13.092Z,1.38
2018-03-07T07:06:38.931Z,1.33
2018-03-07T07:09:04.840Z,1.36
2018-03-07T07:11:30.780Z,1.45
2018-03-07T07:13:56.681Z,1.42
2018-03-07T07:16:22.585Z,1.45
2018-03-07T07:18:48.446Z,1.54
2018-03-07T07:21:14.315Z,1.47
2018-03-07T07:23:40.193Z,1.54
2018-03-07T07:26:06.044Z,1.59
2018-03-07T07:28:31.888Z,1.54
2018-03-07T07:30:57.890Z,1.62
2018-03-07T07:33:23.781Z,1.59
2018-03-07T07:35:49.880Z,1.67
2018-03-07T07:38:15.777Z,1.64
2018-03-07T07:40:41.766Z,1.70
2018-03-07T07:43:07.762Z,1.76
2018-03-07T07:45:33.679Z,1.77
2018-03-07T07:47:59.553Z,1.79
2018-03-07T07:50:25.437Z,1.91
2018-03-07T07:52:51.332Z,1.94
2018-03-07T07:55:17.180Z,1.95
2018-03-07T07:57:43.113Z,1.88
2018-03-07T08:00:09.442Z,1.96
2018-03-07T08:02:35.328Z,2.00
2018-03-07T08:05:01.326Z,1.98
2018-03-07T08:07:27.221Z,1.99
2018-03-07T08:09:53.173Z,2.00
2018-03-07T08:12:19.501Z,2.07
2018-03-07T08:14:45.437Z,2.06
2018-03-07T08:17:11.280Z,2.12
2018-03-07T08:19:37.124Z,2.04
2018-03-07T08:22:03.021Z,2.02
2018-03-07T08:24:29.390Z,2.01
2018-03-07T08:26:55.272Z,2.08
2018-03-07T08:29:21.154Z,2.10
2018-03-07T08:31:46.996Z,2.13
2018-03-07T08:34:12.855Z,2.17
2018-03-07T08:36:39.168Z,2.26
2018-03-07T08:39:05.093Z,2.34
2018-03-07T08:41:30.995Z,2.38
2018-03-07T08:43:56.896Z,2.35
2018-03-07T08:46:22.741Z,2.34
2018-03-07T08:48:48.624Z,2.45
2018-03-07T08:51:14.517Z,2.48
2018-03-07T08:53:40.513Z,2.47
2018-03-07T08:56:06.411Z,2.51
2018-03-07T08:58:32.475Z,2.61
2018-03-07T09:00:58.390Z,2.51
2018-03-07T09:03:24.721Z,2.64
2018-03-07T09:05:50.856Z,2.61
2018-03-07T09:08:16.735Z,2.66
2018-03-07T09:10:42.640Z,2.55
2018-03-07T09:13:08.535Z,2.45
2018-03-07T09:15:34.434Z,2.32
2018-03-07T09:18:00.248Z,2.44
2018-03-07T09:20:26.137Z,2.32
2018-03-07T09:22:52.120Z,2.33
2018-03-07T09:25:17.959Z,2.44
2018-03-07T09:27:43.904Z,2.52
2018-03-07T09:30:09.998Z,2.55
2018-03-07T09:32:35.920Z,2.50
2018-03-07T09:35:01.955Z,2.50
2018-03-07T09:37:27.816Z,2.53
2018-03-07T09:39:53.669Z,2.48
2018-03-07T09:42:19.795Z,2.50
2018-03-07T09:44:45.692Z,2.55
2018-03-07T09:47:11.816Z,2.50
2018-03-07T09:49:37.736Z,2.62
2018-03-07T09:52:03.585Z,2.52
2018-03-07T09:54:29.512Z,2.59
2018-03-07T09:56:55.442Z,2.64
2018-03-07T09:59:21.773Z,2.61
2018-03-07T10:01:47.672Z,2.66
2018-03-07T10:04:13.556Z,2.65
2018-03-07T10:06:39.977Z,2.65
2018-03-07T10:09:05.842Z,2.64
2018-03-07T10:11:31.733Z,2.70
2018-03-07T10:13:57.706Z,2.79
2018-03-07T10:16:23.601Z,2.97
2018-03-07T10:18:49.520Z,2.87
2018-03-07T10:21:15.366Z,2.97
2018-03-07T10:23:41.207Z,3.02
2018-03-07T10:26:07.096Z,2.88
2018-03-07T10:28:32.942Z,2.81
2018-03-07T10:30:58.832Z,2.79
2018-03-07T10:33:26.514Z,2.79
2018-03-07T10:35:52.385Z,2.87
2018-03-07T10:38:18.616Z,2.96
2018-03-07T10:40:44.603Z,2.82
2018-03-07T10:43:10.500Z,2.82
2018-03-07T10:45:36.363Z,2.82
2018-03-07T10:48:02.264Z,2.77
2018-03-07T10:50:28.519Z,2.97
2018-03-07T10:52:54.459Z,2.98
2018-03-07T10:55:20.348Z,2.90
2018-03-07T10:57:46.543Z,2.91
2018-03-07T11:00:12.558Z,3.15
2018-03-07T11:02:38.544Z,3.13
2018-03-07T11:05:04.441Z,3.11
2018-03-07T11:07:30.297Z,3.15
2018-03-07T11:09:56.564Z,3.20
2018-03-07T11:12:22.427Z,3.16
2018-03-07T11:14:48.273Z,3.10
2018-03-07T11:17:14.175Z,3.03
2018-03-07T11:19:40.024Z,2.94
2018-03-07T11:22:06.296Z,2.99
2018-03-07T11:24:32.248Z,3.23
2018-03-07T11:26:58.092Z,3.30
2018-03-07T11:29:23.961Z,3.26
2018-03-07T11:31:49.852Z,3.28
2018-03-07T11:34:15.938Z,3.39
2018-03-07T11:36:41.803Z,3.40
2018-03-07T11:39:07.684Z,3.31
2018-03-07T11:41:33.540Z,3.13
2018-03-07T11:43:59.480Z,3.14
2018-03-07T11:46:25.405Z,3.10
2018-03-07T11:48:51.329Z,3.30
2018-03-07T11:51:17.182Z,3.24
2018-03-07T11:53:43.065Z,3.17
2018-03-07T11:56:08.976Z,3.28
2018-03-07T11:58:34.788Z,3.31
2018-03-07T12:01:00.686Z,3.42
2018-03-07T12:03:26.547Z,3.45
2018-03-07T12:05:52.448Z,3.36
2018-03-07T12:08:18.370Z,3.39
2018-03-07T12:10:44.216Z,3.44
2018-03-07T12:13:10.140Z,3.38
2018-03-07T12:15:36.020Z,3.42
2018-03-07T12:18:01.864Z,3.24
2018-03-07T12:20:27.729Z,3.25
2018-03-07T12:22:53.608Z,3.36
2018-03-07T12:25:20.054Z,3.44
2018-03-07T12:27:45.928Z,3.40
2018-03-07T12:30:11.812Z,3.52
2018-03-07T12:32:37.688Z,3.51
2018-03-07T12:35:03.645Z,3.49
2018-03-07T12:37:29.596Z,3.52
2018-03-07T12:39:55.463Z,3.21
2018-03-07T12:42:21.317Z,3.26
2018-03-07T12:44:47.611Z,3.26
2018-03-07T12:47:13.717Z,3.42
2018-03-07T12:49:39.580Z,3.29
2018-03-07T12:52:05.464Z,3.27
2018-03-07T12:54:31.409Z,3.12
2018-03-07T12:56:57.332Z,3.15
2018-03-07T12:59:23.231Z,3.19
2018-03-07T13:01:49.084Z,3.20
2018-03-07T13:04:14.948Z,3.16
2018-03-07T13:06:40.954Z,3.08
2018-03-07T13:09:07.042Z,3.15
2018-03-07T13:11:32.995Z,3.13
2018-03-07T13:13:58.912Z,3.00
2018-03-07T13:16:24.874Z,3.03
2018-03-07T13:18:50.825Z,3.15
2018-03-07T13:21:16.776Z,3.18
2018-03-07T13:23:42.620Z,3.19
2018-03-07T13:26:08.532Z,3.06
2018-03-07T13:28:34.432Z,2.95
2018-03-07T13:31:00.295Z,3.15
2018-03-07T13:33:26.148Z,2.92
2018-03-07T13:35:52.025Z,2.86
2018-03-07T13:38:17.968Z,2.92
2018-03-07T13:40:43.825Z,2.89
2018-03-07T13:43:09.773Z,2.87
2018-03-07T13:45:35.629Z,2.94
2018-03-07T13:48:01.470Z,3.03
2018-03-07T13:50:27.357Z,3.01
2018-03-07T13:52:53.280Z,2.89
2018-03-07T13:55:19.125Z,2.97
2018-03-07T13:57:45.025Z,2.98
2018-03-07T14:00:10.872Z,2.98
2018-03-07T14:02:36.813Z,2.95
2018-03-07T14:05:02.816Z,3.04
2018-03-07T14:07:28.701Z,2.91
2018-03-07T14:09:54.600Z,2.96
2018-03-07T14:12:20.511Z,2.80
2018-03-07T14:14:46.485Z,2.91
2018-03-07T14:17:12.387Z,2.93
2018-03-07T14:19:38.305Z,2.94
2018-03-07T14:22:04.173Z,3.01
2018-03-07T14:24:30.316Z,3.05
2018-03-07T14:26:56.250Z,3.00
2018-03-07T14:29:22.110Z,2.99
2018-03-07T14:31:47.969Z,2.94
2018-03-07T14:34:13.886Z,3.01
2018-03-07T14:36:39.880Z,3.01
2018-03-07T14:39:05.825Z,3.01
2018-03-07T14:41:31.742Z,3.03
2018-03-07T14:43:57.688Z,3.03
2018-03-07T14:46:23.562Z,3.05
2018-03-07T14:48:49.460Z,2.95
2018-03-07T14:51:15.511Z,2.94
2018-03-07T14:53:41.371Z,2.88
2018-03-07T14:56:07.248Z,2.81
2018-03-07T14:58:33.109Z,2.73
2018-03-07T15:00:59.047Z,2.70
2018-03-07T15:03:24.944Z,2.85
2018-03-07T15:05:50.827Z,2.77
2018-03-07T15:08:16.759Z,2.87
2018-03-07T15:10:43.071Z,2.86
2018-03-07T15:13:08.953Z,2.92
2018-03-07T15:15:34.803Z,3.06
2018-03-07T15:18:00.684Z,2.93
2018-03-07T15:20:26.540Z,2.93
2018-03-07T15:22:52.652Z,2.86
2018-03-07T15:25:18.581Z,2.83
2018-03-07T15:27:44.449Z,2.88
2018-03-07T15:30:10.321Z,2.83
2018-03-07T15:32:36.277Z,2.86
2018-03-07T15:35:02.137Z,2.98
2018-03-07T15:37:27.997Z,2.93
2018-03-07T15:39:53.999Z,2.90
2018-03-07T15:42:19.866Z,2.86
2018-03-07T15:44:45.920Z,2.75
2018-03-07T15:47:11.837Z,2.80
2018-03-07T15:49:37.770Z,2.87
2018-03-07T15:52:03.640Z,2.84
2018-03-07T15:54:29.677Z,2.86
2018-03-07T15:56:55.528Z,2.84
2018-03-07T15:59:21.527Z,2.78
2018-03-07T16:01:47.460Z,2.81
2018-03-07T16:04:13.315Z,2.74
2018-03-07T16:06:39.160Z,2.68
2018-03-07T16:09:05.087Z,2.81
2018-03-07T16:11:31.006Z,2.80
2018-03-07T16:13:56.852Z,2.73
2018-03-07T16:16:22.757Z,2.67
2018-03-07T16:18:48.610Z,2.67
2018-03-07T16:21:14.469Z,2.58
2018-03-07T16:23:40.366Z,2.60
2018-03-07T16:26:06.221Z,2.62
2018-03-07T16:28:32.072Z,2.63
2018-03-07T16:30:57.956Z,2.71
2018-03-07T16:33:23.841Z,2.62
2018-03-07T16:35:49.788Z,2.55
2018-03-07T16:38:15.700Z,2.54
2018-03-07T16:40:41.792Z,2.53
2018-03-07T16:43:07.650Z,2.60
2018-03-07T16:45:33.607Z,2.67
2018-03-07T16:47:59.457Z,2.65
2018-03-07T16:50:25.374Z,2.63
2018-03-07T16:52:51.279Z,2.67
2018-03-07T16:55:17.135Z,2.60
2018-03-07T16:57:43.089Z,2.65
2018-03-07T17:00:08.981Z,2.62
2018-03-07T17:02:34.839Z,2.61
2018-03-07T17:05:00.701Z,2.65
2018-03-07T17:07:27.660Z,2.57
2018-03-07T17:09:53.535Z,2.48
2018-03-07T17:12:19.460Z,2.40
2018-03-07T17:14:45.348Z,2.38
2018-03-07T17:17:11.232Z,2.44
2018-03-07T17:19:37.092Z,2.40
2018-03-07T17:22:03.021Z,2.42
2018-03-07T17:24:29.076Z,2.38
2018-03-07T17:26:54.952Z,2.36
2018-03-07T17:29:20.842Z,2.41
2018-03-07T17:31:46.715Z,2.42
2018-03-07T17:34:12.584Z,2.48
2018-03-07T17:36:38.528Z,2.41
2018-03-07T17:39:04.386Z,2.47
2018-03-07T17:41:30.238Z,2.37
2018-03-07T17:43:56.172Z,2.38
2018-03-07T17:46:22.030Z,2.38
2018-03-07T17:48:47.874Z,2.53
2018-03-07T17:51:13.790Z,2.44
2018-03-07T17:53:39.921Z,2.50
2018-03-07T17:56:05.943Z,2.50
2018-03-07T17:58:31.882Z,2.47
2018-03-07T18:00:57.752Z,2.50
2018-03-07T18:03:23.600Z,2.47
2018-03-07T18:05:49.484Z,2.58
2018-03-07T18:08:15.356Z,2.61
2018-03-07T18:10:41.248Z,2.59
2018-03-07T18:13:07.148Z,2.50
2018-03-07T18:15:33.005Z,2.51
2018-03-07T18:17:58.896Z,2.42
2018-03-07T18:20:24.812Z,2.35
2018-03-07T18:22:50.740Z,2.46
2018-03-07T18:25:16.648Z,2.41
2018-03-07T18:27:42.534Z,2.37
2018-03-07T18:30:08.392Z,2.44
2018-03-07T18:32:34.238Z,2.44
2018-03-07T18:35:00.256Z,2.46
2018-03-07T18:37:26.180Z,2.50
2018-03-07T18:39:52.024Z,2.42
2018-03-07T18:42:17.921Z,2.44
2018-03-07T18:44:43.773Z,2.43
2018-03-07T18:47:09.636Z,2.40
2018-03-07T18:49:35.536Z,2.32
2018-03-07T18:52:01.393Z,2.38
2018-03-07T18:54:27.327Z,2.33
2018-03-07T18:56:53.253Z,2.34
2018-03-07T18:59:19.099Z,2.31
2018-03-07T19:01:44.944Z,2.37
2018-03-07T19:04:11.805Z,2.27
2018-03-07T19:06:37.760Z,2.24
2018-03-07T19:09:03.672Z,2.34
2018-03-07T19:11:29.634Z,2.31
2018-03-07T19:13:55.476Z,2.26
2018-03-07T19:16:21.425Z,2.22
2018-03-07T19:18:47.368Z,2.24
2018-03-07T19:21:13.270Z,2.24
2018-03-07T19:23:39.407Z,2.26
2018-03-07T19:26:05.355Z,2.30
2018-03-07T19:28:31.216Z,2.19
2018-03-07T19:30:57.060Z,2.23
2018-03-07T19:33:23.013Z,2.38
2018-03-07T19:35:48.869Z,2.27
2018-03-07T19:38:14.811Z,2.25
2018-03-07T19:40:40.750Z,2.19
2018-03-07T19:43:06.592Z,2.33
2018-03-07T19:45:32.449Z,2.24
2018-03-07T19:47:58.340Z,2.23
2018-03-07T19:50:24.204Z,2.31
2018-03-07T19:52:50.134Z,2.25
2018-03-07T19:55:16.050Z,2.26
2018-03-07T19:57:42.002Z,2.21
2018-03-07T20:00:08.785Z,2.29
2018-03-07T20:02:34.692Z,2.29
2018-03-07T20:05:00.544Z,2.32
2018-03-07T20:07:26.393Z,2.41
2018-03-07T20:09:52.276Z,2.43
2018-03-07T20:12:18.170Z,2.37
2018-03-07T20:14:44.033Z,2.44
2018-03-07T20:17:09.916Z,2.47
2018-03-07T20:19:35.768Z,2.38
2018-03-07T20:22:01.604Z,2.31
2018-03-07T20:24:27.512Z,2.35
2018-03-07T20:26:53.376Z,2.28
2018-03-07T20:29:19.224Z,2.22
2018-03-07T20:31:45.108Z,2.37
2018-03-07T20:34:10.968Z,2.24
2018-03-07T20:36:36.816Z,2.20
2018-03-07T20:39:02.817Z,2.19
2018-03-07T20:41:28.683Z,2.20
2018-03-07T20:43:54.533Z,2.29
2018-03-07T20:46:20.415Z,2.27
2018-03-07T20:48:46.260Z,2.19
2018-03-07T20:51:12.114Z,2.27
2018-03-07T20:53:38.005Z,2.29
2018-03-07T20:56:03.864Z,2.27
2018-03-07T20:58:29.737Z,2.30
2018-03-07T21:00:55.634Z,2.21
2018-03-07T21:03:21.569Z,2.20
2018-03-07T21:05:47.421Z,2.22
2018-03-07T21:08:13.305Z,2.12
2018-03-07T21:10:39.304Z,2.13
2018-03-07T21:13:05.180Z,2.05
2018-03-07T21:15:31.171Z,2.10
2018-03-07T21:17:57.035Z,2.19
2018-03-07T21:20:22.885Z,2.15
2018-03-07T21:22:48.939Z,2.12
2018-03-07T21:25:14.797Z,2.12
2018-03-07T21:27:40.652Z,2.09
2018-03-07T21:30:06.528Z,2.13
2018-03-07T21:32:32.372Z,2.07
2018-03-07T21:34:58.216Z,2.04
2018-03-07T21:37:24.117Z,1.97
2018-03-07T21:39:49.997Z,1.93
2018-03-07T21:42:15.853Z,1.96
2018-03-07T21:44:41.742Z,1.93
2018-03-07T21:47:07.609Z,1.92
2018-03-07T21:49:33.477Z,1.89
2018-03-07T21:51:59.358Z,1.95
2018-03-07T21:54:25.212Z,1.98
2018-03-07T21:56:51.076Z,1.97
2018-03-07T21:59:16.970Z,1.96
2018-03-07T22:01:42.836Z,1.95
2018-03-07T22:04:08.781Z,1.99
2018-03-07T22:06:34.671Z,1.93
2018-03-07T22:09:00.555Z,1.94
2018-03-07T22:11:26.517Z,1.87
2018-03-07T22:13:52.502Z,1.86
2018-03-07T22:16:18.364Z,1.86
2018-03-07T22:18:44.208Z,2.00
2018-03-07T22:21:10.105Z,1.86
2018-03-07T22:23:36.020Z,1.82
2018-03-07T22:26:01.875Z,1.77
2018-03-07T22:28:27.833Z,1.80
2018-03-07T22:30:53.680Z,1.80
2018-03-07T22:33:19.625Z,1.75
2018-03-07T22:35:45.521Z,1.69
2018-03-07T22:38:11.435Z,1.59
2018-03-07T22:40:37.284Z,1.47
2018-03-07T22:43:03.190Z,1.41
2018-03-07T22:45:29.098Z,1.31
2018-03-07T22:47:55.057Z,1.22
2018-03-07T22:50:20.940Z,1.18
2018-03-07T22:52:46.792Z,1.08
2018-03-07T22:55:12.662Z,1.05
2018-03-07T22:57:38.544Z,1.08
2018-03-07T23:00:04.471Z,1.08
2018-03-07T23:02:30.318Z,1.01
2018-03-07T23:04:56.268Z,1.00
2018-03-07T23:07:22.080Z,0.98
2018-03-07T23:09:47.944Z,0.96
2018-03-07T23:12:13.846Z,0.97
2018-03-07T23:14:39.951Z,0.93
2018-03-07T23:17:05.844Z,0.95
2018-03-07T23:19:32.201Z,1.00
2018-03-07T23:21:58.132Z,0.99
2018-03-07T23:24:24.031Z,1.13
2018-03-07T23:26:50.087Z,1.05
2018-03-07T23:29:16.191Z,1.14
2018-03-07T23:31:42.537Z,1.07
2018-03-07T23:34:08.665Z,1.22
2018-03-07T23:36:34.885Z,1.25
2018-03-07T23:39:00.834Z,1.24
2018-03-07T23:41:26.805Z,1.24
2018-03-07T23:43:52.732Z,1.19
2018-03-07T23:46:18.789Z,1.15
2018-03-07T23:48:45.171Z,1.24
2018-03-07T23:51:11.374Z,1.25
2018-03-07T23:53:37.561Z,1.24
2018-03-07T23:56:03.605Z,1.21
2018-03-07T23:58:29.463Z,1.20
